Time;durP1;ratioP1;P1;durP2;ratioP2;P2;SDS_P1;SDS_P2;PMS_P1;PMS_P2;Temp;Humidity;BMP_temperature;BMP_pressure;BME280_temperature;BME280_humidity;BME280_pressure;Samples;Min_cycle;Max_cycle;Signal;HPM_P1;HPM_P2
2024/03/28 00:00:58;;;;;;;1.60;0.75;;;21.20;56.20;;;;;;4949179;28;90634;-61
2024/03/28 00:03:25;;;;;;;0.93;0.70;;;21.20;56.20;;;;;;4949754;28;88531;-62
2024/03/28 00:05:58;;;;;;;2.47;0.70;;;21.20;56.20;;;;;;4965452;28;88121;-61
2024/03/28 00:08:25;;;;;;;1.33;0.70;;;21.20;56.20;;;;;;4964990;28;89517;-61
2024/03/28 00:10:52;;;;;;;1.00;0.68;;;21.20;56.20;;;;;;4949594;28;87827;-61
2024/03/28 00:13:18;;;;;;;1.30;0.85;;;21.20;56.20;;;;;;4948977;28;87230;-61
2024/03/28 00:15:44;;;;;;;0.88;0.65;;;21.20;56.10;;;;;;4949866;28;87285;-61
2024/03/28 00:18:11;;;;;;;1.20;0.77;;;21.20;56.20;;;;;;4949041;28;88523;-61
2024/03/28 00:20:38;;;;;;;2.67;1.00;;;21.20;56.20;;;;;;4948234;28;87189;-61
2024/03/28 00:23:04;;;;;;;1.52;0.80;;;21.20;56.20;;;;;;4949670;28;87147;-61
2024/03/28 00:25:30;;;;;;;1.33;0.60;;;21.20;56.20;;;;;;4952015;28;87439;-61
2024/03/28 00:28:01;;;;;;;1.30;0.80;;;21.10;56.20;;;;;;4947616;28;90631;-61
2024/03/28 00:30:49;;;;;;;0.82;0.50;;;21.10;56.10;;;;;;4968510;28;88931;-61
2024/03/28 00:33:17;;;;;;;2.10;1.10;;;21.10;56.10;;;;;;4950473;28;88042;-61
2024/03/28 00:35:43;;;;;;;0.82;0.70;;;21.10;56.00;;;;;;4967073;28;87998;-62
2024/03/28 00:38:09;;;;;;;0.95;0.80;;;21.10;55.90;;;;;;4948434;28;87498;-61
2024/03/28 00:40:37;;;;;;;1.30;0.60;;;21.10;56.00;;;;;;4951971;28;87042;-61
2024/03/28 00:43:03;;;;;;;1.88;1.08;;;21.10;56.10;;;;;;4950512;28;87597;-61
2024/03/28 00:45:30;;;;;;;0.50;0.50;;;21.10;55.80;;;;;;4953375;28;86783;-61
2024/03/28 00:47:56;;;;;;;1.15;0.75;;;21.10;55.90;;;;;;4952455;28;87979;-61
2024/03/28 00:50:22;;;;;;;0.60;0.60;;;21.10;55.90;;;;;;4951589;28;87453;-61
2024/03/28 00:52:48;;;;;;;1.10;0.80;;;21.10;55.90;;;;;;4952418;28;88699;-61
2024/03/28 00:55:14;;;;;;;1.30;0.80;;;21.00;55.70;;;;;;4947612;28;88803;-61
2024/03/28 00:57:42;;;;;;;1.70;0.88;;;21.00;55.80;;;;;;4952004;28;89235;-61
2024/03/28 01:00:09;;;;;;;1.08;0.60;;;21.10;55.80;;;;;;4944963;28;92861;-61
2024/03/28 01:02:35;;;;;;;0.90;0.47;;;21.00;55.90;;;;;;4951362;28;88117;-61
2024/03/28 01:05:01;;;;;;;1.02;0.70;;;21.00;55.80;;;;;;4950805;28;87417;-60
2024/03/28 01:07:26;;;;;;;0.50;0.50;;;21.00;55.80;;;;;;4952704;28;88100;-61
2024/03/28 01:09:52;;;;;;;1.20;0.70;;;21.00;55.80;;;;;;4952890;28;87995;-61
2024/03/28 01:12:17;;;;;;;0.70;0.70;;;21.00;55.90;;;;;;4952187;28;87598;-61
2024/03/28 01:14:44;;;;;;;1.45;0.73;;;21.00;55.80;;;;;;4951356;28;87279;-61
2024/03/28 01:17:11;;;;;;;1.20;0.55;;;21.00;55.70;;;;;;4949869;28;90137;-61
2024/03/28 01:20:07;;;;;;;1.45;0.68;;;21.00;55.80;;;;;;4949619;28;89176;-61
2024/03/28 01:22:33;;;;;;;1.10;0.57;;;20.90;55.60;;;;;;4951450;28;87033;-61
2024/03/28 01:24:58;;;;;;;2.45;1.13;;;20.90;55.80;;;;;;4949634;28;88171;-62
2024/03/28 01:27:24;;;;;;;0.98;0.77;;;21.00;55.80;;;;;;4951003;28;87856;-61
2024/03/28 01:29:53;;;;;;;1.15;0.60;;;20.90;55.70;;;;;;4950402;28;87899;-62
2024/03/28 01:32:19;;;;;;;1.17;0.70;;;20.90;55.80;;;;;;4950985;28;87047;-61
2024/03/28 01:34:48;;;;;;;0.85;0.70;;;20.90;55.80;;;;;;4950256;28;87429;-61
2024/03/28 01:37:14;;;;;;;0.93;0.73;;;21.00;55.80;;;;;;4949833;28;88374;-61
2024/03/28 01:39:40;;;;;;;1.30;0.68;;;20.90;55.70;;;;;;4951820;28;87829;-61
2024/03/28 01:42:08;;;;;;;1.05;0.60;;;21.00;55.90;;;;;;4951309;28;88707;-61
2024/03/28 01:44:35;;;;;;;0.95;0.60;;;20.90;55.80;;;;;;4950303;28;86965;-61
2024/03/28 01:47:03;;;;;;;1.52;0.77;;;20.90;55.70;;;;;;4966587;28;89327;-61
2024/03/28 01:49:29;;;;;;;1.42;0.50;;;20.90;55.60;;;;;;4951128;28;88023;-61
2024/03/28 01:51:56;;;;;;;0.90;0.50;;;20.90;55.60;;;;;;4953164;28;87521;-61
2024/03/28 01:54:22;;;;;;;1.27;0.57;;;20.90;55.50;;;;;;4951371;28;87288;-61
2024/03/28 01:56:49;;;;;;;1.85;0.82;;;20.90;55.60;;;;;;4949808;28;88115;-61
2024/03/28 01:59:16;;;;;;;1.55;0.65;;;20.80;55.50;;;;;;4948437;28;90619;-60
2024/03/28 02:01:45;;;;;;;1.17;0.70;;;20.80;55.50;;;;;;4949802;28;87476;-61
2024/03/28 02:04:13;;;;;;;0.80;0.50;;;20.80;55.50;;;;;;4951686;28;87581;-60
2024/03/28 02:06:39;;;;;;;1.27;0.93;;;20.80;55.40;;;;;;4947504;28;89168;-61
2024/03/28 02:09:05;;;;;;;1.25;0.80;;;20.80;55.50;;;;;;4929823;28;90202;-61
2024/03/28 02:11:33;;;;;;;1.17;0.63;;;20.80;55.60;;;;;;4952811;28;86864;-61
2024/03/28 02:14:02;;;;;;;1.85;0.47;;;20.80;55.60;;;;;;4965918;28;87315;-61
2024/03/28 02:16:27;;;;;;;0.88;0.80;;;20.90;55.50;;;;;;4951134;28;88820;-61
2024/03/28 02:18:57;;;;;;;0.70;0.65;;;20.80;55.40;;;;;;4949563;28;87773;-62
2024/03/28 02:21:23;;;;;;;1.63;0.68;;;20.80;55.50;;;;;;4951857;28;86838;-61
2024/03/28 02:23:51;;;;;;;9.13;1.15;;;20.80;55.40;;;;;;4950894;28;86537;-61
2024/03/28 02:26:22;;;;;;;0.85;0.57;;;20.80;55.30;;;;;;4952094;28;87740;-61
2024/03/28 02:28:48;;;;;;;0.95;0.70;;;20.80;55.20;;;;;;4950735;28;88456;-61
2024/03/28 02:31:15;;;;;;;0.90;0.60;;;20.80;55.30;;;;;;4950881;28;88744;-62
2024/03/28 02:33:42;;;;;;;0.75;0.50;;;20.80;55.30;;;;;;4947753;28;87455;-62
2024/03/28 02:36:08;;;;;;;0.57;0.50;;;20.70;55.10;;;;;;4949537;28;89360;-61
2024/03/28 02:38:34;;;;;;;0.60;0.40;;;20.80;55.30;;;;;;4949092;28;87938;-61
2024/03/28 02:40:59;;;;;;;2.17;0.50;;;20.80;55.20;;;;;;4949502;28;87088;-61
2024/03/28 02:43:26;;;;;;;1.40;0.70;;;20.80;55.20;;;;;;4951005;28;87322;-61
2024/03/28 02:45:52;;;;;;;2.03;0.60;;;20.80;55.30;;;;;;4949911;28;88140;-61
2024/03/28 02:48:19;;;;;;;0.75;0.52;;;20.80;55.40;;;;;;4950333;28;86868;-61
2024/03/28 02:50:45;;;;;;;0.73;0.60;;;20.70;55.10;;;;;;4949424;28;86903;-61
2024/03/28 02:53:11;;;;;;;0.60;0.50;;;20.70;55.20;;;;;;4951599;28;87427;-61
2024/03/28 02:55:37;;;;;;;0.90;0.75;;;20.70;55.20;;;;;;4949004;28;89087;-61
2024/03/28 02:58:03;;;;;;;1.13;0.88;;;20.70;55.20;;;;;;4948593;28;88254;-61
2024/03/28 03:00:29;;;;;;;0.52;0.45;;;20.70;55.20;;;;;;4950522;28;87131;-61
2024/03/28 03:02:56;;;;;;;1.67;0.88;;;20.70;55.00;;;;;;4949711;28;87456;-60
2024/03/28 03:05:22;;;;;;;0.50;0.50;;;20.70;55.00;;;;;;4948222;28;89013;-61
2024/03/28 03:07:48;;;;;;;1.20;0.80;;;20.70;55.10;;;;;;4948390;28;88766;-60
2024/03/28 03:10:14;;;;;;;0.70;0.40;;;20.70;55.20;;;;;;4948020;28;87601;-60
2024/03/28 03:12:42;;;;;;;0.52;0.50;;;20.70;55.10;;;;;;4950594;28;86698;-61
2024/03/28 03:15:09;;;;;;;1.55;1.10;;;20.70;55.10;;;;;;4950592;28;89056;-61
2024/03/28 03:17:36;;;;;;;2.45;0.88;;;20.60;55.10;;;;;;4948652;28;88816;-60
2024/03/28 03:20:07;;;;;;;0.60;0.43;;;20.60;55.10;;;;;;4948733;28;87979;-61
2024/03/28 03:22:35;;;;;;;0.88;0.70;;;20.70;55.10;;;;;;4947125;28;87724;-61
2024/03/28 03:25:10;;;;;;;2.00;0.70;;;20.70;55.00;;;;;;4949634;28;88736;-61
2024/03/28 03:34:34;;;;;;;0.50;0.50;;;20.60;55.00;;;;;;4950625;28;88811;-61
2024/03/28 03:35:54;;;;;;;1.58;0.70;;;20.60;55.20;;;;;;4950380;28;87349;-61
2024/03/28 03:38:20;;;;;;;0.70;0.50;;;20.60;55.00;;;;;;4950482;28;87649;-61
2024/03/28 03:40:46;;;;;;;0.60;0.60;;;20.60;55.10;;;;;;4949116;28;87227;-61
2024/03/28 03:43:11;;;;;;;1.15;0.60;;;20.60;55.10;;;;;;4949207;28;86994;-61
2024/03/28 03:45:37;;;;;;;0.55;0.30;;;20.60;55.20;;;;;;4949824;28;89293;-61
2024/03/28 03:48:03;;;;;;;0.90;0.60;;;20.60;55.20;;;;;;4950030;28;89158;-61
2024/03/28 03:50:29;;;;;;;1.92;0.77;;;20.60;55.10;;;;;;4949138;28;87543;-60
2024/03/28 03:52:54;;;;;;;1.02;0.45;;;20.60;55.10;;;;;;4948057;28;87334;-60
2024/03/28 03:55:20;;;;;;;0.50;0.50;;;20.60;55.10;;;;;;4948039;28;87966;-61
2024/03/28 03:57:46;;;;;;;0.70;0.65;;;20.60;55.20;;;;;;4948022;28;88561;-61
2024/03/28 04:00:12;;;;;;;0.95;0.65;;;20.60;55.20;;;;;;4949351;28;87407;-60
2024/03/28 04:02:38;;;;;;;0.95;0.52;;;20.50;55.20;;;;;;4952317;28;86295;-60
2024/03/28 04:05:05;;;;;;;0.85;0.65;;;20.50;55.10;;;;;;4950943;28;88258;-61
2024/03/28 04:07:31;;;;;;;0.88;0.50;;;20.50;55.10;;;;;;4950013;28;89262;-61
2024/03/28 04:09:57;;;;;;;0.85;0.60;;;20.50;55.10;;;;;;4951583;28;88534;-61
2024/03/28 04:12:23;;;;;;;0.63;0.63;;;20.50;55.20;;;;;;4953245;28;87280;-60
2024/03/28 04:14:49;;;;;;;0.60;0.60;;;20.50;55.20;;;;;;4950589;28;87684;-60
2024/03/28 04:17:15;;;;;;;0.50;0.50;;;20.50;55.00;;;;;;4951381;28;88053;-62
2024/03/28 04:19:41;;;;;;;0.52;0.50;;;20.50;55.00;;;;;;4953476;28;87414;-61
2024/03/28 04:22:06;;;;;;;1.20;0.70;;;20.50;55.20;;;;;;4950704;28;87414;-60
2024/03/28 04:24:32;;;;;;;0.68;0.60;;;20.50;55.00;;;;;;4951931;28;88301;-61
2024/03/28 04:26:58;;;;;;;0.60;0.43;;;20.50;55.00;;;;;;4951612;28;86949;-61
2024/03/28 04:29:24;;;;;;;0.57;0.57;;;20.50;55.10;;;;;;4952555;28;87502;-61
2024/03/28 04:31:53;;;;;;;0.50;0.50;;;20.50;55.20;;;;;;4952490;28;87141;-60
2024/03/28 04:34:19;;;;;;;0.60;0.60;;;20.50;55.10;;;;;;4944200;28;89736;-61
2024/03/28 04:36:45;;;;;;;0.50;0.50;;;20.40;55.10;;;;;;4950942;28;89822;-61
2024/03/28 04:39:13;;;;;;;0.50;0.50;;;20.50;55.00;;;;;;4953546;28;87821;-61
2024/03/28 04:41:39;;;;;;;1.17;0.60;;;20.40;54.90;;;;;;4951296;28;86804;-60
2024/03/28 04:44:05;;;;;;;1.38;0.63;;;20.50;54.90;;;;;;4966485;28;90199;-61
2024/03/28 04:46:32;;;;;;;0.50;0.40;;;20.40;54.90;;;;;;4951656;28;87304;-61
2024/03/28 04:48:58;;;;;;;1.85;1.23;;;20.40;54.80;;;;;;4951859;28;87756;-61
2024/03/28 04:51:26;;;;;;;0.52;0.50;;;20.40;54.70;;;;;;4952388;28;87311;-61
2024/03/28 04:53:51;;;;;;;0.50;0.50;;;20.40;54.60;;;;;;4950563;28;88077;-61
2024/03/28 04:56:18;;;;;;;0.60;0.60;;;20.40;54.80;;;;;;4951002;28;87262;-60
2024/03/28 04:58:44;;;;;;;0.82;0.82;;;20.40;54.70;;;;;;4950598;28;88554;-61
2024/03/28 05:01:11;;;;;;;1.08;0.95;;;20.40;54.70;;;;;;4950655;28;87809;-60
2024/03/28 05:03:38;;;;;;;1.02;0.70;;;20.40;54.60;;;;;;4951831;28;87689;-60
2024/03/28 05:06:04;;;;;;;0.52;0.52;;;20.40;54.60;;;;;;4950797;28;88371;-61
2024/03/28 05:08:30;;;;;;;1.02;0.52;;;20.40;54.50;;;;;;4951798;28;87292;-61
2024/03/28 05:10:58;;;;;;;0.50;0.30;;;20.40;54.60;;;;;;4950732;28;87201;-61
2024/03/28 05:13:25;;;;;;;0.57;0.50;;;20.40;54.60;;;;;;4951147;28;88301;-61
2024/03/28 05:15:53;;;;;;;0.47;0.40;;;20.40;54.60;;;;;;4950270;28;88295;-60
2024/03/28 05:18:19;;;;;;;0.50;0.50;;;20.40;54.60;;;;;;4950283;28;87343;-61
2024/03/28 05:20:47;;;;;;;0.70;0.70;;;20.40;54.50;;;;;;4951852;28;87492;-60
2024/03/28 05:23:13;;;;;;;0.57;0.50;;;20.40;54.50;;;;;;4948547;28;88779;-60
2024/03/28 05:25:40;;;;;;;0.43;0.43;;;20.30;54.40;;;;;;4951964;28;88174;-60
2024/03/28 05:28:06;;;;;;;0.35;0.35;;;20.30;54.40;;;;;;4950519;28;87497;-61
2024/03/28 05:30:32;;;;;;;0.95;0.77;;;20.30;54.50;;;;;;4953602;28;87087;-60
2024/03/28 05:33:00;;;;;;;1.88;0.43;;;20.30;54.40;;;;;;4952172;28;87634;-61
2024/03/28 05:35:26;;;;;;;0.50;0.50;;;20.30;54.30;;;;;;4951379;28;89593;-61
2024/03/28 05:37:54;;;;;;;0.95;0.63;;;20.30;54.30;;;;;;4952447;28;88246;-62
2024/03/28 05:40:20;;;;;;;0.50;0.50;;;20.30;54.30;;;;;;4949817;28;87261;-61
2024/03/28 05:42:46;;;;;;;0.32;0.32;;;20.30;54.30;;;;;;4949947;28;88154;-61
2024/03/28 05:45:12;;;;;;;1.15;0.60;;;20.30;54.30;;;;;;4952142;28;86890;-61
2024/03/28 05:47:39;;;;;;;0.40;0.40;;;20.30;54.30;;;;;;4951401;28;88440;-61
2024/03/28 05:50:05;;;;;;;0.70;0.52;;;20.30;54.20;;;;;;4949797;28;87102;-61
2024/03/28 05:52:34;;;;;;;0.70;0.55;;;20.40;54.10;;;;;;4950503;28;87389;-61
2024/03/28 05:55:01;;;;;;;1.95;0.50;;;20.40;54.20;;;;;;4945594;28;88370;-60
2024/03/28 05:57:26;;;;;;;0.50;0.50;;;20.40;54.20;;;;;;4950740;28;87004;-62
2024/03/28 05:59:52;;;;;;;0.98;0.47;;;20.40;53.90;;;;;;4950937;28;87050;-60
2024/03/28 06:02:20;;;;;;;1.00;0.50;;;20.50;53.90;;;;;;4950911;28;87421;-62
2024/03/28 06:04:46;;;;;;;2.40;0.85;;;20.50;53.80;;;;;;4946327;28;88583;-61
2024/03/28 06:07:14;;;;;;;1.00;0.60;;;20.50;53.90;;;;;;4952153;28;87458;-61
2024/03/28 06:09:41;;;;;;;0.40;0.40;;;20.50;53.90;;;;;;4950598;28;87617;-61
2024/03/28 06:12:09;;;;;;;0.65;0.57;;;20.50;53.80;;;;;;4925243;28;94287;-61
2024/03/28 06:14:38;;;;;;;1.38;0.82;;;20.50;53.90;;;;;;4946426;28;89900;-61
2024/03/28 06:17:04;;;;;;;1.50;0.63;;;20.60;54.00;;;;;;4951015;28;87138;-61
2024/03/28 06:19:30;;;;;;;1.40;0.70;;;20.60;53.70;;;;;;4950533;28;87792;-61
2024/03/28 06:21:56;;;;;;;2.40;0.77;;;20.60;53.30;;;;;;4950094;28;88697;-61
2024/03/28 06:24:22;;;;;;;0.60;0.60;;;20.70;53.70;;;;;;4952909;28;87190;-61
2024/03/28 06:27:22;;;;;;;0.52;0.50;;;20.80;53.90;;;;;;4949083;28;87520;-61
2024/03/28 06:29:50;;;;;;;0.50;0.50;;;20.80;53.70;;;;;;4949625;28;86115;-61
2024/03/28 06:32:24;;;;;;;1.80;0.63;;;20.90;53.60;;;;;;4949103;28;88882;-61
2024/03/28 06:35:27;;;;;;;2.40;0.98;;;21.10;53.60;;;;;;4948992;28;88292;-62
2024/03/28 06:37:53;;;;;;;4.60;1.35;;;21.10;53.50;;;;;;4964965;28;88479;-61
2024/03/28 06:40:19;;;;;;;13.43;1.88;;;21.10;53.70;;;;;;4968335;28;87481;-61
2024/03/28 06:42:45;;;;;;;2.78;1.23;;;21.10;53.70;;;;;;4965496;28;87915;-61
2024/03/28 06:45:11;;;;;;;10.48;2.53;;;21.10;53.80;;;;;;4966411;28;88193;-61
2024/03/28 06:47:37;;;;;;;7.88;1.55;;;21.10;53.80;;;;;;4961977;28;87946;-62
2024/03/28 06:50:05;;;;;;;5.15;1.85;;;21.20;53.70;;;;;;4948715;28;87520;-61
2024/03/28 06:52:33;;;;;;;8.45;1.95;;;21.10;53.40;;;;;;4947536;28;89161;-61
2024/03/28 06:54:59;;;;;;;8.80;2.20;;;21.10;52.70;;;;;;4947721;28;88379;-62
2024/03/28 06:57:26;;;;;;;6.95;1.52;;;21.10;52.70;;;;;;4949177;28;87380;-62
2024/03/28 06:59:52;;;;;;;10.82;1.92;;;21.20;52.70;;;;;;4946564;28;87482;-60
2024/03/28 07:02:21;;;;;;;6.63;2.25;;;21.20;52.80;;;;;;4949299;28;89045;-61
2024/03/28 07:04:47;;;;;;;6.97;1.43;;;21.30;54.20;;;;;;4938371;28;89876;-61
2024/03/28 07:07:15;;;;;;;9.43;2.13;;;21.30;53.20;;;;;;4931478;28;87079;-61
2024/03/28 07:09:41;;;;;;;7.03;1.90;;;21.40;53.40;;;;;;4947132;28;87944;-61
2024/03/28 07:12:07;;;;;;;9.10;2.45;;;21.40;52.50;;;;;;4948297;28;88816;-61
2024/03/28 07:14:33;;;;;;;5.75;2.00;;;21.40;52.50;;;;;;4947870;28;88859;-61
2024/03/28 07:16:59;;;;;;;14.65;3.25;;;21.40;53.00;;;;;;4949040;28;87949;-61
2024/03/28 07:19:24;;;;;;;17.23;3.95;;;21.30;52.40;;;;;;4946572;28;87819;-60
2024/03/28 07:21:50;;;;;;;14.35;4.05;;;21.30;52.20;;;;;;4949607;28;87996;-62
2024/03/28 07:24:16;;;;;;;11.88;2.25;;;21.30;52.40;;;;;;4950526;28;88250;-60
2024/03/28 07:26:41;;;;;;;13.57;2.80;;;21.30;52.80;;;;;;4945148;28;87926;-62
2024/03/28 07:29:08;;;;;;;10.32;3.35;;;21.30;53.10;;;;;;4943018;28;88004;-60
2024/03/28 07:31:36;;;;;;;10.70;3.00;;;21.30;53.30;;;;;;4945218;28;88164;-61
2024/03/28 07:34:02;;;;;;;10.35;3.38;;;21.30;53.40;;;;;;4945778;28;89826;-61
2024/03/28 07:36:27;;;;;;;21.40;4.22;;;21.30;53.50;;;;;;4953930;28;87666;-61
2024/03/28 07:38:53;;;;;;;9.25;2.88;;;21.40;53.50;;;;;;4953439;28;86990;-61
2024/03/28 07:41:19;;;;;;;9.75;2.97;;;21.30;53.80;;;;;;4952500;28;87553;-61
2024/03/28 07:43:46;;;;;;;11.43;3.00;;;21.30;53.90;;;;;;4948041;28;89460;-61
2024/03/28 07:46:12;;;;;;;8.00;3.67;;;21.30;53.90;;;;;;4967625;28;88726;-60
2024/03/28 07:48:37;;;;;;;13.27;2.90;;;21.30;53.60;;;;;;4972925;28;87439;-63
2024/03/28 07:51:04;;;;;;;13.52;3.60;;;21.30;53.60;;;;;;4964288;28;90161;-63
2024/03/28 07:53:31;;;;;;;10.38;2.60;;;21.30;53.90;;;;;;4969746;28;89111;-61
2024/03/28 07:55:58;;;;;;;12.27;2.97;;;21.40;54.00;;;;;;4965689;28;89590;-61
2024/03/28 07:58:27;;;;;;;10.27;2.80;;;21.40;53.60;;;;;;4968410;28;87749;-61
2024/03/28 08:01:08;;;;;;;5.88;2.30;;;21.50;53.60;;;;;;4954834;28;88424;-62
2024/03/28 08:03:35;;;;;;;10.02;3.05;;;21.50;53.80;;;;;;4955318;28;87308;-61
2024/03/28 08:06:04;;;;;;;10.73;3.13;;;21.60;54.20;;;;;;4954364;28;86910;-61
2024/03/28 08:08:32;;;;;;;8.20;2.63;;;21.60;54.20;;;;;;4953582;28;87441;-61
2024/03/28 08:10:58;;;;;;;8.60;2.20;;;21.70;54.20;;;;;;4953231;28;87370;-61
2024/03/28 08:13:24;;;;;;;9.50;2.28;;;21.70;54.20;;;;;;4950349;28;87732;-68
2024/03/28 08:15:49;;;;;;;9.48;3.67;;;21.80;54.30;;;;;;4952029;28;88189;-62
2024/03/28 08:18:16;;;;;;;10.30;2.83;;;21.80;54.40;;;;;;4952479;28;88674;-61
2024/03/28 08:20:43;;;;;;;9.70;2.53;;;21.80;54.30;;;;;;4952701;28;88115;-60
2024/03/28 08:23:09;;;;;;;9.23;2.33;;;21.80;54.30;;;;;;4952505;28;87803;-62
2024/03/28 08:25:36;;;;;;;11.48;2.65;;;21.80;54.20;;;;;;4950423;28;87275;-61
2024/03/28 08:28:01;;;;;;;8.88;2.50;;;21.80;54.40;;;;;;4952461;28;87264;-62
2024/03/28 08:30:27;;;;;;;6.30;2.22;;;21.80;54.80;;;;;;4951791;28;87960;-61
2024/03/28 08:32:58;;;;;;;8.40;2.45;;;21.80;55.00;;;;;;4951212;28;88100;-61
2024/03/28 08:35:24;;;;;;;8.63;2.45;;;21.80;54.80;;;;;;4952651;28;87667;-61
2024/03/28 08:37:52;;;;;;;7.63;2.22;;;21.70;54.70;;;;;;4950369;28;87553;-61
2024/03/28 08:40:18;;;;;;;8.13;2.30;;;21.70;54.70;;;;;;4949313;28;89663;-61
2024/03/28 08:42:44;;;;;;;3.75;1.75;;;21.70;54.70;;;;;;4950689;28;87993;-62
2024/03/28 08:45:12;;;;;;;6.65;2.10;;;21.80;55.00;;;;;;4951628;28;87310;-61
2024/03/28 08:47:40;;;;;;;9.18;2.30;;;21.70;55.20;;;;;;4952615;28;87639;-62
2024/03/28 08:50:07;;;;;;;5.13;1.75;;;21.80;55.10;;;;;;4948435;28;87421;-61
2024/03/28 08:52:33;;;;;;;6.70;1.70;;;21.80;55.30;;;;;;4947260;28;88348;-61
2024/03/28 08:54:59;;;;;;;7.35;2.22;;;21.80;55.00;;;;;;4949058;28;87584;-61
2024/03/28 08:57:27;;;;;;;8.98;2.65;;;21.80;54.70;;;;;;4953134;28;87484;-61
2024/03/28 08:59:54;;;;;;;9.13;3.30;;;21.70;54.70;;;;;;4953772;28;87224;-61
2024/03/28 09:02:21;;;;;;;6.53;1.60;;;21.80;54.50;;;;;;4951656;28;87979;-61
2024/03/28 09:04:47;;;;;;;8.82;2.60;;;21.70;55.30;;;;;;4949104;28;88698;-61
2024/03/28 09:07:18;;;;;;;7.70;2.75;;;21.80;55.40;;;;;;4949276;28;87427;-61
2024/03/28 09:09:44;;;;;;;10.75;2.58;;;21.90;55.10;;;;;;4948322;28;89219;-62
2024/03/28 09:12:11;;;;;;;11.93;3.40;;;21.90;54.60;;;;;;4946059;28;87572;-59
2024/03/28 09:14:38;;;;;;;11.82;3.10;;;22.00;54.10;;;;;;4945599;28;87415;-60
2024/03/28 09:17:04;;;;;;;13.20;3.15;;;22.10;53.50;;;;;;4950532;28;87063;-63
2024/03/28 09:19:33;;;;;;;6.28;2.40;;;22.20;53.50;;;;;;4949728;28;88473;-63
2024/03/28 09:21:59;;;;;;;8.88;2.83;;;22.20;53.60;;;;;;4947075;28;88845;-65
2024/03/28 09:24:26;;;;;;;14.32;2.88;;;22.30;54.40;;;;;;4958684;28;87645;-66
2024/03/28 09:26:52;;;;;;;10.90;2.92;;;22.40;53.80;;;;;;4966073;28;87360;-63
2024/03/28 09:29:21;;;;;;;13.98;3.53;;;22.50;53.60;;;;;;4954113;28;89218;-57
2024/03/28 09:31:50;;;;;;;17.75;2.85;;;22.50;53.80;;;;;;4945630;28;88822;-54
2024/03/28 09:34:17;;;;;;;6.95;2.03;;;22.60;53.70;;;;;;4946387;28;87670;-59
2024/03/28 09:36:43;;;;;;;8.25;2.90;;;22.60;53.40;;;;;;4950220;28;87694;-58
2024/03/28 09:39:14;;;;;;;7.43;1.90;;;22.60;53.40;;;;;;4964798;28;89026;-67
2024/03/28 09:41:45;;;;;;;9.93;2.83;;;22.60;53.40;;;;;;4951693;28;88240;-66
2024/03/28 09:44:21;;;;;;;4.93;2.25;;;22.70;53.50;;;;;;4951066;28;87463;-68
2024/03/28 09:46:48;;;;;;;8.35;2.58;;;22.70;53.00;;;;;;4950273;28;87022;-61
2024/03/28 09:49:17;;;;;;;5.57;1.65;;;22.70;52.90;;;;;;4948753;28;87490;-68
2024/03/28 09:51:44;;;;;;;8.15;2.25;;;22.80;53.00;;;;;;4949523;28;88007;-68
2024/03/28 09:54:11;;;;;;;5.03;1.77;;;22.80;53.20;;;;;;4950737;28;88244;-60
2024/03/28 09:56:37;;;;;;;7.97;2.28;;;22.80;53.40;;;;;;4963556;28;88534;-63
2024/03/28 09:59:04;;;;;;;7.45;2.30;;;22.80;53.40;;;;;;4966189;28;89289;-63
2024/03/28 10:01:33;;;;;;;6.75;2.17;;;22.70;53.60;;;;;;4967173;28;88901;-61
2024/03/28 10:04:18;;;;;;;4.75;1.83;;;22.70;53.30;;;;;;4969231;28;87787;-65
2024/03/28 10:06:55;;;;;;;5.75;2.20;;;22.60;53.30;;;;;;4966758;28;86915;-65
2024/03/28 10:09:22;;;;;;;5.72;1.92;;;22.60;53.00;;;;;;4950408;28;88430;-68
2024/03/28 10:11:48;;;;;;;9.63;2.65;;;22.60;53.30;;;;;;4949399;28;88718;-61
2024/03/28 10:14:15;;;;;;;39.30;6.05;;;22.60;53.00;;;;;;4944732;28;86808;-60
2024/03/28 10:16:43;;;;;;;37.13;7.15;;;22.60;52.40;;;;;;4941006;28;87642;-60
2024/03/28 10:19:09;;;;;;;57.08;8.77;;;22.60;52.10;;;;;;4940352;28;90207;-61
2024/03/28 10:21:36;;;;;;;32.55;6.07;;;22.60;52.00;;;;;;4940808;28;89491;-60
2024/03/28 10:24:16;;;;;;;29.23;6.00;;;22.50;52.20;;;;;;4943929;28;87954;-60
2024/03/28 10:26:42;;;;;;;27.73;5.72;;;22.40;52.50;;;;;;4950663;28;87555;-60
2024/03/28 10:29:18;;;;;;;22.73;5.43;;;22.40;52.50;;;;;;4947174;28;88650;-60
2024/03/28 10:31:45;;;;;;;27.25;5.47;;;22.40;52.70;;;;;;4948649;28;87867;-61
2024/03/28 10:34:17;;;;;;;21.42;4.53;;;22.40;52.80;;;;;;4948404;28;87345;-60
2024/03/28 10:36:53;;;;;;;21.02;4.53;;;22.40;52.60;;;;;;4951648;28;86888;-60
2024/03/28 10:39:18;;;;;;;18.05;5.28;;;22.50;52.70;;;;;;4950617;28;88696;-60
2024/03/28 10:41:46;;;;;;;19.60;5.03;;;22.50;52.40;;;;;;4949849;28;88216;-60
2024/03/28 10:44:14;;;;;;;35.65;6.18;;;22.40;52.30;;;;;;4948670;28;88532;-60
2024/03/28 10:46:40;;;;;;;19.48;4.15;;;22.40;52.50;;;;;;4948344;28;87313;-60
2024/03/28 10:49:07;;;;;;;22.17;5.22;;;22.40;52.60;;;;;;4946528;28;88962;-60
2024/03/28 10:51:49;;;;;;;20.42;5.28;;;22.40;52.50;;;;;;4947303;28;88513;-60
2024/03/28 10:54:30;;;;;;;19.45;4.32;;;22.50;52.50;;;;;;4948226;28;87511;-60
2024/03/28 10:56:57;;;;;;;19.30;4.95;;;22.40;52.30;;;;;;4947303;28;87495;-62
2024/03/28 10:59:28;;;;;;;19.85;4.97;;;22.30;52.50;;;;;;4950263;28;88175;-61
2024/03/28 11:01:56;;;;;;;15.07;4.00;;;22.30;52.60;;;;;;4950764;28;87344;-60
2024/03/28 11:04:23;;;;;;;26.77;4.55;;;22.30;52.60;;;;;;4949655;28;87395;-61
2024/03/28 11:06:51;;;;;;;21.42;4.72;;;22.40;52.30;;;;;;4949077;28;87174;-60
2024/03/28 11:09:17;;;;;;;17.42;4.60;;;22.40;52.40;;;;;;4949187;28;88996;-60
2024/03/28 11:11:44;;;;;;;26.02;5.63;;;22.40;52.30;;;;;;4950196;28;88828;-60
2024/03/28 11:14:10;;;;;;;16.30;4.57;;;22.30;52.40;;;;;;4951391;28;87362;-60
2024/03/28 11:16:36;;;;;;;13.15;3.10;;;22.30;52.40;;;;;;4947778;28;87363;-60
2024/03/28 11:19:02;;;;;;;16.40;4.32;;;22.30;52.30;;;;;;4947518;28;88846;-60
2024/03/28 11:21:34;;;;;;;14.00;3.40;;;22.30;52.30;;;;;;4951640;28;87894;-60
2024/03/28 11:24:00;;;;;;;16.63;3.88;;;22.40;52.30;;;;;;4951331;28;88329;-61
2024/03/28 11:26:27;;;;;;;14.95;3.53;;;22.30;52.10;;;;;;4951041;28;87188;-61
2024/03/28 11:29:05;;;;;;;13.30;2.95;;;22.30;52.30;;;;;;4945789;28;89344;-61
2024/03/28 11:31:32;;;;;;;15.13;3.50;;;22.30;52.40;;;;;;4949405;28;87166;-61
2024/03/28 11:34:03;;;;;;;17.83;4.30;;;22.30;52.40;;;;;;4948684;28;88041;-60
2024/03/28 11:36:31;;;;;;;23.77;4.10;;;22.40;52.50;;;;;;4951089;28;88506;-60
2024/03/28 11:38:56;;;;;;;16.75;3.88;;;22.30;52.30;;;;;;4946781;28;90612;-61
2024/03/28 11:41:24;;;;;;;16.38;3.88;;;22.30;52.40;;;;;;4950471;28;87822;-60
2024/03/28 11:43:50;;;;;;;14.63;4.13;;;22.20;52.10;;;;;;4947378;28;87563;-60
2024/03/28 11:46:19;;;;;;;17.05;4.00;;;22.20;52.40;;;;;;4944949;28;87365;-60
2024/03/28 11:48:45;;;;;;;12.32;3.40;;;22.20;52.50;;;;;;4949932;28;88566;-60
2024/03/28 11:51:11;;;;;;;15.10;3.72;;;22.30;52.30;;;;;;4951242;28;86999;-60
2024/03/28 11:53:40;;;;;;;16.92;3.60;;;22.30;52.20;;;;;;4949936;28;87423;-60
2024/03/28 11:56:07;;;;;;;9.52;2.65;;;22.30;52.10;;;;;;4947194;28;88058;-61
2024/03/28 11:58:33;;;;;;;12.77;4.05;;;22.20;52.20;;;;;;4947685;28;90072;-60
2024/03/28 12:01:01;;;;;;;14.70;3.85;;;22.20;52.40;;;;;;4948457;28;89935;-61
2024/03/28 12:03:28;;;;;;;9.68;3.33;;;22.20;52.70;;;;;;4950772;28;87002;-62
2024/03/28 12:05:56;;;;;;;11.38;2.53;;;22.30;52.20;;;;;;4947776;28;87652;-60
2024/03/28 12:08:29;;;;;;;13.48;2.97;;;22.30;51.10;;;;;;4948663;28;88720;-60
2024/03/28 12:11:02;;;;;;;10.45;3.20;;;22.30;51.20;;;;;;4945977;28;88693;-61
2024/03/28 12:13:28;;;;;;;12.48;2.97;;;22.30;51.20;;;;;;4962593;28;87591;-61
2024/03/28 12:15:58;;;;;;;15.13;3.22;;;22.20;51.80;;;;;;4930335;28;87046;-60
2024/03/28 12:18:25;;;;;;;7.65;2.38;;;22.20;52.10;;;;;;4948565;28;87318;-61
2024/03/28 12:21:00;;;;;;;12.13;2.80;;;22.30;52.50;;;;;;4946979;28;87330;-60
2024/03/28 12:23:26;;;;;;;7.20;2.15;;;22.40;52.40;;;;;;4952487;28;87970;-60
2024/03/28 12:25:53;;;;;;;8.55;2.25;;;22.40;52.30;;;;;;4952920;28;87744;-60
2024/03/28 12:28:22;;;;;;;13.10;3.50;;;22.30;52.20;;;;;;4951146;28;89779;-61
2024/03/28 12:30:54;;;;;;;7.63;2.65;;;22.20;51.90;;;;;;4953116;28;88673;-60
2024/03/28 12:33:21;;;;;;;6.53;2.42;;;22.20;52.60;;;;;;4954342;28;87761;-60
2024/03/28 12:35:55;;;;;;;7.25;2.08;;;22.30;52.60;;;;;;4953525;28;87031;-60
2024/03/28 12:38:21;;;;;;;8.15;2.58;;;22.30;49.80;;;;;;4951747;28;88205;-60
2024/03/28 12:40:48;;;;;;;6.32;1.70;;;22.20;48.20;;;;;;4952378;28;87987;-60
2024/03/28 12:43:22;;;;;;;5.88;1.83;;;22.10;47.60;;;;;;4951866;28;88699;-60
2024/03/28 12:45:49;;;;;;;6.82;2.10;;;22.10;50.40;;;;;;4953751;28;87197;-60
2024/03/28 12:48:17;;;;;;;6.07;1.60;;;22.10;50.40;;;;;;4952475;28;89092;-60
2024/03/28 12:50:45;;;;;;;6.82;1.83;;;22.20;49.80;;;;;;4951823;28;87695;-60